Overview Statistics Trail Chart Weather Telemetry Raw packets
 

This is the latest recevied weather packets stored in our database for station/object OM5ZU-10. If no packets are shown the sender has not sent any weather packets the latest 10 day(s).

<< 32 33 34 35 36 37 38 >>
Time Temp. Humidity Pressure Rain* Wind** Luminosity Snow
1787821160 24.44° C 51% 1018.8 hPa - - - -
1787820260 23.89° C 54% 1018.9 hPa - - - -
1787819360 24.44° C 53% 1018.8 hPa - - - -
1787818459 22.78° C 56% 1018.9 hPa - - - -
1787817559 23.33° C 53% 1019.1 hPa - - - -
1787816661 21.67° C 59% 1019.2 hPa - - - -
1787815758 21.67° C 60% 1019.2 hPa - - - -
1787814858 21.67° C 61% 1019.1 hPa - - - -
1787813958 21.11° C 64% 1019.1 hPa - - - -
1787813057 20° C 69% 1018.9 hPa - - - -
1787812157 20° C 68% 1018.9 hPa - - - -
1787811257 19.44° C 67% 1018.8 hPa - - - -
1787810356 18.89° C 68% 1018.6 hPa - - - -
1787809564 17.78° C 72% 1018.6 hPa - - - -
1787808664 17.78° C 72% 1018.7 hPa - - - -
1787807764 17.22° C 72% 1018.7 hPa - - - -
1787806864 17.22° C 72% 1018.8 hPa - - - -
1787805964 17.22° C 72% 1018.6 hPa - - - -
1787805064 16.67° C 72% 1018.3 hPa - - - -
1787804164 16.67° C 72% 1018.3 hPa - - - -
1787803263 15.56° C 72% 1018.4 hPa - - - -
1787802363 16.11° C 72% 1018.7 hPa - - - -
1787801463 15.56° C 72% 1018.8 hPa - - - -
1787800563 16.67° C 72% 1018.3 hPa - - - -
1787799663 15.56° C 72% 1018.3 hPa - - - -

* Rain since midnight (hover to see other rain measurements)
** Current wind speed in m/s (hover to see current wind gust speed)